BIENTÔT MET'MAP
version 2.0 !

Prévue avant fin octobre,
la nouvelle version sera
plus belle, plus complète
et hébergée sur un serveur
3 fois plus puissant...
et toujours gratuite !


Pas compatible ?
Essayez la version Mobile !

SE CONNECTER : | S'inscrire | Disclaimer | Découvrir Orbifly |
Code OACI :

TAF - LIEO Olbia Costa Smeralda - 02 Jun 2020 05:37 UTC
Data Sources :     NOAA   


- Altitude de l'aérodrome : 37 ft
- Code IATA : OLB
- Pas de NOTAMs connus.


LIEO - Olbia Costa Smeralda

Dernier METAR connu : 2015/08/11 07:50 LIEO 110750Z 32009KT 280V350 9999 FEW025 26/17 Q1012
TAF TAF LIEO
Valide du 02 à 00h jusqu'au 03 à 00h UTC


012300Z 0200/0224 VRB06KT 9999 FEW030
BECMG 0208/0210 04012KT
BECMG 0216/0218 VRB05KT

Source NOAA


MET'MAP, la Météo Aéronautique d'un coup d'oeil ! - Copyright ORBIFLY Décembre 2007

Développement & Programmation : Alexandra Zaïnal
Co-Développement : Marc-Olivier Méhu
Soutien technique & logistique : Manuel Goepfert
Conception & Financement : Baudouin d'Aumeries